sensor_id;sensor_type;location;lat;lon;timestamp;temperature;humidity
65598;SHT31;52267;51.984;20.956;2022-12-29T00:00:55;5.60;76.48
65598;SHT31;52267;51.984;20.956;2022-12-29T00:03:22;5.60;76.83
65598;SHT31;52267;51.984;20.956;2022-12-29T00:05:55;5.60;76.54
65598;SHT31;52267;51.984;20.956;2022-12-29T00:08:24;5.60;76.24
65598;SHT31;52267;51.984;20.956;2022-12-29T00:11:06;5.62;76.67
65598;SHT31;52267;51.984;20.956;2022-12-29T00:13:35;5.62;76.70
65598;SHT31;52267;51.984;20.956;2022-12-29T00:16:20;5.63;76.70
65598;SHT31;52267;51.984;20.956;2022-12-29T00:18:48;5.64;76.49
65598;SHT31;52267;51.984;20.956;2022-12-29T00:21:17;5.62;76.45
65598;SHT31;52267;51.984;20.956;2022-12-29T00:24:06;5.63;76.43
65598;SHT31;52267;51.984;20.956;2022-12-29T00:29:48;5.63;76.35
65598;SHT31;52267;51.984;20.956;2022-12-29T00:32:34;5.63;76.32
65598;SHT31;52267;51.984;20.956;2022-12-29T00:35:34;5.64;76.50
65598;SHT31;52267;51.984;20.956;2022-12-29T00:38:12;5.62;76.46
65598;SHT31;52267;51.984;20.956;2022-12-29T00:40:59;5.63;76.56
65598;SHT31;52267;51.984;20.956;2022-12-29T00:43:51;5.62;76.32
65598;SHT31;52267;51.984;20.956;2022-12-29T00:46:54;5.63;76.61
65598;SHT31;52267;51.984;20.956;2022-12-29T00:49:20;5.63;76.31
65598;SHT31;52267;51.984;20.956;2022-12-29T00:52:01;5.64;76.24
65598;SHT31;52267;51.984;20.956;2022-12-29T00:54:35;5.63;76.18
65598;SHT31;52267;51.984;20.956;2022-12-29T00:57:05;5.63;76.31
65598;SHT31;52267;51.984;20.956;2022-12-29T00:59:38;5.64;76.12
65598;SHT31;52267;51.984;20.956;2022-12-29T01:02:07;5.63;76.00
65598;SHT31;52267;51.984;20.956;2022-12-29T01:04:36;5.63;75.86
65598;SHT31;52267;51.984;20.956;2022-12-29T01:07:03;5.62;75.50
65598;SHT31;52267;51.984;20.956;2022-12-29T01:09:30;5.63;75.88
65598;SHT31;52267;51.984;20.956;2022-12-29T01:12:17;5.62;75.64
65598;SHT31;52267;51.984;20.956;2022-12-29T01:15:05;5.62;75.13
65598;SHT31;52267;51.984;20.956;2022-12-29T01:17:34;5.61;75.01
65598;SHT31;52267;51.984;20.956;2022-12-29T01:20:01;5.62;75.33
65598;SHT31;52267;51.984;20.956;2022-12-29T01:22:29;5.62;75.28
65598;SHT31;52267;51.984;20.956;2022-12-29T01:24:56;5.63;75.75
65598;SHT31;52267;51.984;20.956;2022-12-29T01:27:23;5.63;75.93
65598;SHT31;52267;51.984;20.956;2022-12-29T01:29:50;5.64;76.11
65598;SHT31;52267;51.984;20.956;2022-12-29T01:32:20;5.63;75.86
65598;SHT31;52267;51.984;20.956;2022-12-29T01:34:47;5.62;75.04
65598;SHT31;52267;51.984;20.956;2022-12-29T01:37:14;5.62;75.61
65598;SHT31;52267;51.984;20.956;2022-12-29T01:39:41;5.59;75.06
65598;SHT31;52267;51.984;20.956;2022-12-29T01:42:14;5.60;75.19
65598;SHT31;52267;51.984;20.956;2022-12-29T01:50:01;5.58;75.34
65598;SHT31;52267;51.984;20.956;2022-12-29T01:52:50;5.59;75.61
65598;SHT31;52267;51.984;20.956;2022-12-29T01:55:34;5.59;75.78
65598;SHT31;52267;51.984;20.956;2022-12-29T01:58:08;5.57;75.39
65598;SHT31;52267;51.984;20.956;2022-12-29T02:00:37;5.55;74.65
65598;SHT31;52267;51.984;20.956;2022-12-29T02:03:04;5.53;74.68
65598;SHT31;52267;51.984;20.956;2022-12-29T02:05:42;5.53;75.16
65598;SHT31;52267;51.984;20.956;2022-12-29T02:08:10;5.52;75.04
65598;SHT31;52267;51.984;20.956;2022-12-29T02:10:38;5.51;74.72
65598;SHT31;52267;51.984;20.956;2022-12-29T02:13:07;5.51;74.78
65598;SHT31;52267;51.984;20.956;2022-12-29T02:15:56;5.49;74.92
65598;SHT31;52267;51.984;20.956;2022-12-29T02:22:01;5.44;74.73
65598;SHT31;52267;51.984;20.956;2022-12-29T02:41:32;5.42;75.03
65598;SHT31;52267;51.984;20.956;2022-12-29T02:50:19;5.34;75.48
65598;SHT31;52267;51.984;20.956;2022-12-29T02:53:13;5.33;75.84
65598;SHT31;52267;51.984;20.956;2022-12-29T02:55:49;5.29;76.38
65598;SHT31;52267;51.984;20.956;2022-12-29T02:58:22;5.25;76.64
65598;SHT31;52267;51.984;20.956;2022-12-29T03:03:36;5.19;77.31
65598;SHT31;52267;51.984;20.956;2022-12-29T03:06:19;5.14;77.61
65598;SHT31;52267;51.984;20.956;2022-12-29T03:15:23;4.92;79.26
65598;SHT31;52267;51.984;20.956;2022-12-29T03:18:22;4.88;79.66
65598;SHT31;52267;51.984;20.956;2022-12-29T03:21:48;4.82;79.96
65598;SHT31;52267;51.984;20.956;2022-12-29T03:24:28;4.76;80.05
65598;SHT31;52267;51.984;20.956;2022-12-29T03:27:00;4.72;80.00
65598;SHT31;52267;51.984;20.956;2022-12-29T03:29:31;4.68;81.07
65598;SHT31;52267;51.984;20.956;2022-12-29T03:32:03;4.60;82.05
65598;SHT31;52267;51.984;20.956;2022-12-29T03:34:33;4.54;82.76
65598;SHT31;52267;51.984;20.956;2022-12-29T03:37:07;4.47;83.25
65598;SHT31;52267;51.984;20.956;2022-12-29T03:39:40;4.41;83.39
65598;SHT31;52267;51.984;20.956;2022-12-29T03:42:14;4.40;83.45
65598;SHT31;52267;51.984;20.956;2022-12-29T03:44:46;4.37;83.31
65598;SHT31;52267;51.984;20.956;2022-12-29T03:47:14;4.33;84.07
65598;SHT31;52267;51.984;20.956;2022-12-29T03:49:41;4.28;84.10
65598;SHT31;52267;51.984;20.956;2022-12-29T03:52:08;4.27;83.62
65598;SHT31;52267;51.984;20.956;2022-12-29T03:54:35;4.25;83.96
65598;SHT31;52267;51.984;20.956;2022-12-29T03:57:02;4.22;84.33
65598;SHT31;52267;51.984;20.956;2022-12-29T03:59:30;4.18;84.78
65598;SHT31;52267;51.984;20.956;2022-12-29T04:01:57;4.15;85.11
65598;SHT31;52267;51.984;20.956;2022-12-29T04:04:24;4.10;85.22
65598;SHT31;52267;51.984;20.956;2022-12-29T04:06:51;4.06;85.61
65598;SHT31;52267;51.984;20.956;2022-12-29T04:09:18;4.03;85.38
65598;SHT31;52267;51.984;20.956;2022-12-29T04:11:45;4.01;84.89
65598;SHT31;52267;51.984;20.956;2022-12-29T04:14:12;3.99;85.06
65598;SHT31;52267;51.984;20.956;2022-12-29T04:16:39;3.99;84.84
65598;SHT31;52267;51.984;20.956;2022-12-29T04:19:07;3.97;84.86
65598;SHT31;52267;51.984;20.956;2022-12-29T04:21:34;3.97;84.82
65598;SHT31;52267;51.984;20.956;2022-12-29T04:24:01;3.97;84.49
65598;SHT31;52267;51.984;20.956;2022-12-29T04:26:29;3.97;84.11
65598;SHT31;52267;51.984;20.956;2022-12-29T04:28:56;3.98;83.89
65598;SHT31;52267;51.984;20.956;2022-12-29T04:31:23;3.99;83.63
65598;SHT31;52267;51.984;20.956;2022-12-29T04:33:50;3.97;83.69
65598;SHT31;52267;51.984;20.956;2022-12-29T04:36:17;4.00;83.33
65598;SHT31;52267;51.984;20.956;2022-12-29T04:38:44;3.99;83.28
65598;SHT31;52267;51.984;20.956;2022-12-29T04:41:11;3.97;83.15
65598;SHT31;52267;51.984;20.956;2022-12-29T04:43:38;3.99;83.01
65598;SHT31;52267;51.984;20.956;2022-12-29T04:46:05;3.98;82.91
65598;SHT31;52267;51.984;20.956;2022-12-29T04:48:32;3.98;82.82
65598;SHT31;52267;51.984;20.956;2022-12-29T04:50:59;3.98;82.76
65598;SHT31;52267;51.984;20.956;2022-12-29T04:53:26;3.99;82.64
65598;SHT31;52267;51.984;20.956;2022-12-29T04:55:53;3.99;82.66
65598;SHT31;52267;51.984;20.956;2022-12-29T04:58:21;3.97;82.52
65598;SHT31;52267;51.984;20.956;2022-12-29T05:00:50;3.99;82.50
65598;SHT31;52267;51.984;20.956;2022-12-29T05:03:18;3.97;82.33
65598;SHT31;52267;51.984;20.956;2022-12-29T05:05:45;3.97;82.21
65598;SHT31;52267;51.984;20.956;2022-12-29T05:08:12;3.99;82.06
65598;SHT31;52267;51.984;20.956;2022-12-29T05:10:39;3.98;81.90
65598;SHT31;52267;51.984;20.956;2022-12-29T05:13:06;3.99;81.55
65598;SHT31;52267;51.984;20.956;2022-12-29T05:15:33;4.00;81.48
65598;SHT31;52267;51.984;20.956;2022-12-29T05:18:00;4.01;81.28
65598;SHT31;52267;51.984;20.956;2022-12-29T05:20:27;4.03;80.99
65598;SHT31;52267;51.984;20.956;2022-12-29T05:22:54;4.03;80.52
65598;SHT31;52267;51.984;20.956;2022-12-29T05:25:21;4.05;80.64
65598;SHT31;52267;51.984;20.956;2022-12-29T05:27:48;4.06;80.46
65598;SHT31;52267;51.984;20.956;2022-12-29T05:30:15;4.07;80.55
65598;SHT31;52267;51.984;20.956;2022-12-29T05:32:43;4.06;80.25
65598;SHT31;52267;51.984;20.956;2022-12-29T05:35:10;4.07;79.77
65598;SHT31;52267;51.984;20.956;2022-12-29T05:37:37;4.11;79.83
65598;SHT31;52267;51.984;20.956;2022-12-29T05:40:04;4.11;79.74
65598;SHT31;52267;51.984;20.956;2022-12-29T05:42:32;4.11;79.55
65598;SHT31;52267;51.984;20.956;2022-12-29T05:44:59;4.12;79.27
65598;SHT31;52267;51.984;20.956;2022-12-29T05:47:26;4.14;79.41
65598;SHT31;52267;51.984;20.956;2022-12-29T05:49:53;4.15;79.42
65598;SHT31;52267;51.984;20.956;2022-12-29T05:52:20;4.18;79.38
65598;SHT31;52267;51.984;20.956;2022-12-29T05:54:47;4.21;79.14
65598;SHT31;52267;51.984;20.956;2022-12-29T05:57:14;4.24;79.05
65598;SHT31;52267;51.984;20.956;2022-12-29T05:59:41;4.26;78.84
65598;SHT31;52267;51.984;20.956;2022-12-29T06:02:09;4.28;78.93
65598;SHT31;52267;51.984;20.956;2022-12-29T06:04:36;4.29;78.44
65598;SHT31;52267;51.984;20.956;2022-12-29T06:07:03;4.30;78.64
65598;SHT31;52267;51.984;20.956;2022-12-29T06:09:30;4.34;77.77
65598;SHT31;52267;51.984;20.956;2022-12-29T06:11:57;4.37;77.57
65598;SHT31;52267;51.984;20.956;2022-12-29T06:14:24;4.39;77.42
65598;SHT31;52267;51.984;20.956;2022-12-29T06:16:51;4.43;77.72
65598;SHT31;52267;51.984;20.956;2022-12-29T06:19:18;4.46;77.06
65598;SHT31;52267;51.984;20.956;2022-12-29T06:21:45;4.48;77.39
65598;SHT31;52267;51.984;20.956;2022-12-29T06:24:12;4.51;77.32
65598;SHT31;52267;51.984;20.956;2022-12-29T06:26:39;4.52;77.36
65598;SHT31;52267;51.984;20.956;2022-12-29T06:29:07;4.57;77.60
65598;SHT31;52267;51.984;20.956;2022-12-29T06:31:35;4.59;77.37
65598;SHT31;52267;51.984;20.956;2022-12-29T06:34:02;4.63;76.72
65598;SHT31;52267;51.984;20.956;2022-12-29T06:36:29;4.67;76.90
65598;SHT31;52267;51.984;20.956;2022-12-29T06:38:56;4.69;76.91
65598;SHT31;52267;51.984;20.956;2022-12-29T06:41:23;4.72;76.14
65598;SHT31;52267;51.984;20.956;2022-12-29T06:43:50;4.75;76.85
65598;SHT31;52267;51.984;20.956;2022-12-29T06:46:17;4.77;77.39
65598;SHT31;52267;51.984;20.956;2022-12-29T06:48:44;4.76;77.40
65598;SHT31;52267;51.984;20.956;2022-12-29T06:51:11;4.77;77.35
65598;SHT31;52267;51.984;20.956;2022-12-29T06:53:38;4.76;77.09
65598;SHT31;52267;51.984;20.956;2022-12-29T06:56:05;4.76;77.21
65598;SHT31;52267;51.984;20.956;2022-12-29T06:58:33;4.76;77.00
65598;SHT31;52267;51.984;20.956;2022-12-29T07:01:00;4.77;77.02
65598;SHT31;52267;51.984;20.956;2022-12-29T07:03:27;4.78;76.97
65598;SHT31;52267;51.984;20.956;2022-12-29T07:05:54;4.79;76.66
65598;SHT31;52267;51.984;20.956;2022-12-29T07:08:21;4.83;76.74
65598;SHT31;52267;51.984;20.956;2022-12-29T07:10:48;4.83;76.17
65598;SHT31;52267;51.984;20.956;2022-12-29T07:13:15;4.86;76.43
65598;SHT31;52267;51.984;20.956;2022-12-29T07:15:42;4.89;76.41
65598;SHT31;52267;51.984;20.956;2022-12-29T07:18:09;4.92;76.60
65598;SHT31;52267;51.984;20.956;2022-12-29T07:20:36;4.95;76.01
65598;SHT31;52267;51.984;20.956;2022-12-29T07:23:04;5.01;76.22
65598;SHT31;52267;51.984;20.956;2022-12-29T07:25:31;5.07;75.82
65598;SHT31;52267;51.984;20.956;2022-12-29T07:27:58;5.11;75.75
65598;SHT31;52267;51.984;20.956;2022-12-29T07:30:25;5.16;75.33
65598;SHT31;52267;51.984;20.956;2022-12-29T07:32:52;5.21;75.29
65598;SHT31;52267;51.984;20.956;2022-12-29T07:35:19;5.26;74.94
65598;SHT31;52267;51.984;20.956;2022-12-29T07:37:46;5.32;74.64
65598;SHT31;52267;51.984;20.956;2022-12-29T07:40:13;5.38;73.74
65598;SHT31;52267;51.984;20.956;2022-12-29T07:42:40;5.41;74.41
65598;SHT31;52267;51.984;20.956;2022-12-29T07:45:08;5.46;73.89
65598;SHT31;52267;51.984;20.956;2022-12-29T07:47:35;5.48;74.40
65598;SHT31;52267;51.984;20.956;2022-12-29T07:50:03;5.51;73.82
65598;SHT31;52267;51.984;20.956;2022-12-29T07:52:31;5.52;73.10
65598;SHT31;52267;51.984;20.956;2022-12-29T07:54:58;5.57;73.58
65598;SHT31;52267;51.984;20.956;2022-12-29T07:57:25;5.60;74.17
65598;SHT31;52267;51.984;20.956;2022-12-29T07:59:52;5.63;73.53
65598;SHT31;52267;51.984;20.956;2022-12-29T08:02:19;5.67;72.90
65598;SHT31;52267;51.984;20.956;2022-12-29T08:04:46;5.69;73.45
65598;SHT31;52267;51.984;20.956;2022-12-29T08:07:13;5.73;73.37
65598;SHT31;52267;51.984;20.956;2022-12-29T08:09:40;5.76;73.16
65598;SHT31;52267;51.984;20.956;2022-12-29T08:12:10;5.82;73.45
65598;SHT31;52267;51.984;20.956;2022-12-29T08:14:38;5.86;73.50
65598;SHT31;52267;51.984;20.956;2022-12-29T08:17:05;5.90;71.97
65598;SHT31;52267;51.984;20.956;2022-12-29T08:19:32;5.93;72.19
65598;SHT31;52267;51.984;20.956;2022-12-29T08:21:59;5.96;71.36
65598;SHT31;52267;51.984;20.956;2022-12-29T08:24:26;6.01;71.99
65598;SHT31;52267;51.984;20.956;2022-12-29T08:26:54;6.08;71.49
65598;SHT31;52267;51.984;20.956;2022-12-29T08:29:21;6.16;71.63
65598;SHT31;52267;51.984;20.956;2022-12-29T08:31:48;6.22;71.52
65598;SHT31;52267;51.984;20.956;2022-12-29T08:34:15;6.28;71.98
65598;SHT31;52267;51.984;20.956;2022-12-29T08:36:43;6.33;71.39
65598;SHT31;52267;51.984;20.956;2022-12-29T08:39:10;6.36;70.12
65598;SHT31;52267;51.984;20.956;2022-12-29T08:41:37;6.41;71.18
65598;SHT31;52267;51.984;20.956;2022-12-29T08:44:04;6.44;71.08
65598;SHT31;52267;51.984;20.956;2022-12-29T08:46:31;6.45;70.40
65598;SHT31;52267;51.984;20.956;2022-12-29T08:48:58;6.46;70.86
65598;SHT31;52267;51.984;20.956;2022-12-29T08:51:25;6.47;70.62
65598;SHT31;52267;51.984;20.956;2022-12-29T08:53:52;6.49;71.14
65598;SHT31;52267;51.984;20.956;2022-12-29T08:56:20;6.52;71.14
65598;SHT31;52267;51.984;20.956;2022-12-29T08:58:47;6.55;70.81
65598;SHT31;52267;51.984;20.956;2022-12-29T09:01:14;6.58;70.16
65598;SHT31;52267;51.984;20.956;2022-12-29T09:03:41;6.60;70.10
65598;SHT31;52267;51.984;20.956;2022-12-29T09:06:08;6.63;70.12
65598;SHT31;52267;51.984;20.956;2022-12-29T09:08:36;6.65;70.41
65598;SHT31;52267;51.984;20.956;2022-12-29T09:11:10;6.67;70.15
65598;SHT31;52267;51.984;20.956;2022-12-29T09:13:39;6.69;70.68
65598;SHT31;52267;51.984;20.956;2022-12-29T09:16:07;6.70;70.06
65598;SHT31;52267;51.984;20.956;2022-12-29T09:18:34;6.70;69.63
65598;SHT31;52267;51.984;20.956;2022-12-29T09:21:02;6.71;69.33
65598;SHT31;52267;51.984;20.956;2022-12-29T09:23:31;6.72;69.19
65598;SHT31;52267;51.984;20.956;2022-12-29T09:26:00;6.75;69.50
65598;SHT31;52267;51.984;20.956;2022-12-29T09:28:27;6.78;69.13
65598;SHT31;52267;51.984;20.956;2022-12-29T09:30:56;6.80;68.78
65598;SHT31;52267;51.984;20.956;2022-12-29T09:33:24;6.81;68.21
65598;SHT31;52267;51.984;20.956;2022-12-29T09:35:52;6.82;68.35
65598;SHT31;52267;51.984;20.956;2022-12-29T09:38:23;6.83;68.00
65598;SHT31;52267;51.984;20.956;2022-12-29T09:40:53;6.84;68.94
65598;SHT31;52267;51.984;20.956;2022-12-29T09:43:54;6.85;68.90
65598;SHT31;52267;51.984;20.956;2022-12-29T09:46:37;6.84;68.64
65598;SHT31;52267;51.984;20.956;2022-12-29T09:51:59;6.90;68.58
65598;SHT31;52267;51.984;20.956;2022-12-29T09:56:58;6.95;68.94
65598;SHT31;52267;51.984;20.956;2022-12-29T09:59:36;6.98;69.27
65598;SHT31;52267;51.984;20.956;2022-12-29T10:05:00;7.05;68.43
65598;SHT31;52267;51.984;20.956;2022-12-29T10:07:33;7.09;68.92
65598;SHT31;52267;51.984;20.956;2022-12-29T10:10:50;7.13;69.30
65598;SHT31;52267;51.984;20.956;2022-12-29T10:16:18;7.21;69.02
65598;SHT31;52267;51.984;20.956;2022-12-29T10:24:55;7.47;67.42
65598;SHT31;52267;51.984;20.956;2022-12-29T10:27:30;7.65;67.40
65598;SHT31;52267;51.984;20.956;2022-12-29T10:30:00;7.88;67.17
65598;SHT31;52267;51.984;20.956;2022-12-29T10:32:34;8.05;67.49
65598;SHT31;52267;51.984;20.956;2022-12-29T10:35:09;8.19;65.47
65598;SHT31;52267;51.984;20.956;2022-12-29T10:41:07;8.39;65.22
65598;SHT31;52267;51.984;20.956;2022-12-29T10:46:16;8.47;64.43
65598;SHT31;52267;51.984;20.956;2022-12-29T10:48:48;8.48;64.41
65598;SHT31;52267;51.984;20.956;2022-12-29T10:51:25;8.51;64.96
65598;SHT31;52267;51.984;20.956;2022-12-29T10:54:43;8.48;64.93
65598;SHT31;52267;51.984;20.956;2022-12-29T10:57:01;8.37;64.12
65598;SHT31;52267;51.984;20.956;2022-12-29T10:59:35;8.30;65.42
65598;SHT31;52267;51.984;20.956;2022-12-29T11:07:58;8.17;65.27
65598;SHT31;52267;51.984;20.956;2022-12-29T11:10:30;8.16;65.53
65598;SHT31;52267;51.984;20.956;2022-12-29T11:15:41;8.11;65.75
65598;SHT31;52267;51.984;20.956;2022-12-29T11:21:07;8.12;66.99
65598;SHT31;52267;51.984;20.956;2022-12-29T11:24:27;8.09;66.46
65598;SHT31;52267;51.984;20.956;2022-12-29T11:27:18;8.09;66.64
65598;SHT31;52267;51.984;20.956;2022-12-29T11:29:50;8.09;66.86
65598;SHT31;52267;51.984;20.956;2022-12-29T11:32:22;8.08;66.58
65598;SHT31;52267;51.984;20.956;2022-12-29T11:34:57;8.09;66.38
65598;SHT31;52267;51.984;20.956;2022-12-29T11:40:06;8.11;66.75
65598;SHT31;52267;51.984;20.956;2022-12-29T11:42:48;8.12;67.02
65598;SHT31;52267;51.984;20.956;2022-12-29T11:45:24;8.14;66.97
65598;SHT31;52267;51.984;20.956;2022-12-29T11:47:59;8.16;67.05
65598;SHT31;52267;51.984;20.956;2022-12-29T11:50:28;8.19;66.80
65598;SHT31;52267;51.984;20.956;2022-12-29T11:52:59;8.22;66.72
65598;SHT31;52267;51.984;20.956;2022-12-29T11:55:30;8.23;66.78
65598;SHT31;52267;51.984;20.956;2022-12-29T11:57:58;8.25;66.83
65598;SHT31;52267;51.984;20.956;2022-12-29T12:00:30;8.26;66.29
65598;SHT31;52267;51.984;20.956;2022-12-29T12:03:07;8.29;66.71
65598;SHT31;52267;51.984;20.956;2022-12-29T12:11:16;8.37;67.59
65598;SHT31;52267;51.984;20.956;2022-12-29T12:14:02;8.41;67.38
65598;SHT31;52267;51.984;20.956;2022-12-29T12:16:55;8.46;66.95
65598;SHT31;52267;51.984;20.956;2022-12-29T12:19:34;8.53;66.90
65598;SHT31;52267;51.984;20.956;2022-12-29T12:22:17;8.60;66.83
65598;SHT31;52267;51.984;20.956;2022-12-29T12:24:55;8.66;67.33
65598;SHT31;52267;51.984;20.956;2022-12-29T12:27:37;8.69;66.52
65598;SHT31;52267;51.984;20.956;2022-12-29T12:32:54;8.77;66.48
65598;SHT31;52267;51.984;20.956;2022-12-29T12:41:29;8.92;65.67
65598;SHT31;52267;51.984;20.956;2022-12-29T12:55:50;9.06;66.57
65598;SHT31;52267;51.984;20.956;2022-12-29T12:58:33;9.07;66.02
65598;SHT31;52267;51.984;20.956;2022-12-29T13:07:18;9.09;65.37
65598;SHT31;52267;51.984;20.956;2022-12-29T13:10:30;9.11;65.81
65598;SHT31;52267;51.984;20.956;2022-12-29T13:19:43;9.07;66.26
65598;SHT31;52267;51.984;20.956;2022-12-29T13:22:31;9.06;66.20
65598;SHT31;52267;51.984;20.956;2022-12-29T13:28:01;9.04;66.38
65598;SHT31;52267;51.984;20.956;2022-12-29T13:33:29;9.02;66.41
65598;SHT31;52267;51.984;20.956;2022-12-29T13:41:55;9.00;66.87
65598;SHT31;52267;51.984;20.956;2022-12-29T13:44:37;9.00;66.65
65598;SHT31;52267;51.984;20.956;2022-12-29T13:47:29;9.01;66.45
65598;SHT31;52267;51.984;20.956;2022-12-29T13:50:19;9.00;66.14
65598;SHT31;52267;51.984;20.956;2022-12-29T13:55:59;8.99;65.87
65598;SHT31;52267;51.984;20.956;2022-12-29T14:01:27;9.03;66.33
65598;SHT31;52267;51.984;20.956;2022-12-29T14:04:02;9.04;66.72
65598;SHT31;52267;51.984;20.956;2022-12-29T14:06:38;9.04;66.75
65598;SHT31;52267;51.984;20.956;2022-12-29T14:09:27;9.05;66.08
65598;SHT31;52267;51.984;20.956;2022-12-29T14:11:59;9.07;65.91
65598;SHT31;52267;51.984;20.956;2022-12-29T14:14:29;9.07;66.33
65598;SHT31;52267;51.984;20.956;2022-12-29T14:17:10;9.08;66.99
65598;SHT31;52267;51.984;20.956;2022-12-29T14:19:39;9.08;66.52
65598;SHT31;52267;51.984;20.956;2022-12-29T14:22:10;9.08;66.02
65598;SHT31;52267;51.984;20.956;2022-12-29T14:24:39;9.08;66.59
65598;SHT31;52267;51.984;20.956;2022-12-29T14:34:58;9.09;66.44
65598;SHT31;52267;51.984;20.956;2022-12-29T14:37:30;9.10;66.49
65598;SHT31;52267;51.984;20.956;2022-12-29T14:42:47;9.12;67.05
65598;SHT31;52267;51.984;20.956;2022-12-29T14:47:49;9.14;67.08
65598;SHT31;52267;51.984;20.956;2022-12-29T14:50:18;9.13;67.11
65598;SHT31;52267;51.984;20.956;2022-12-29T14:55:38;9.14;66.69
65598;SHT31;52267;51.984;20.956;2022-12-29T14:58:20;9.16;66.38
65598;SHT31;52267;51.984;20.956;2022-12-29T15:01:17;9.17;66.19
65598;SHT31;52267;51.984;20.956;2022-12-29T15:03:50;9.17;66.62
65598;SHT31;52267;51.984;20.956;2022-12-29T15:06:21;9.18;66.49
65598;SHT31;52267;51.984;20.956;2022-12-29T15:08:54;9.19;66.86
65598;SHT31;52267;51.984;20.956;2022-12-29T15:11:42;9.20;67.16
65598;SHT31;52267;51.984;20.956;2022-12-29T15:17:12;9.20;66.90
65598;SHT31;52267;51.984;20.956;2022-12-29T15:19:53;9.21;67.00
65598;SHT31;52267;51.984;20.956;2022-12-29T15:22:25;9.21;66.97
65598;SHT31;52267;51.984;20.956;2022-12-29T15:24:53;9.21;66.62
65598;SHT31;52267;51.984;20.956;2022-12-29T15:27:23;9.21;66.81
65598;SHT31;52267;51.984;20.956;2022-12-29T15:29:58;9.21;67.37
65598;SHT31;52267;51.984;20.956;2022-12-29T15:32:39;9.22;67.16
65598;SHT31;52267;51.984;20.956;2022-12-29T15:35:26;9.21;67.33
65598;SHT31;52267;51.984;20.956;2022-12-29T15:37:53;9.21;67.52
65598;SHT31;52267;51.984;20.956;2022-12-29T15:40:29;9.20;67.35
65598;SHT31;52267;51.984;20.956;2022-12-29T15:45:56;9.19;67.58
65598;SHT31;52267;51.984;20.956;2022-12-29T15:48:24;9.18;67.65
65598;SHT31;52267;51.984;20.956;2022-12-29T15:50:51;9.16;67.70
65598;SHT31;52267;51.984;20.956;2022-12-29T15:53:22;9.13;67.91
65598;SHT31;52267;51.984;20.956;2022-12-29T15:55:57;9.10;67.72
65598;SHT31;52267;51.984;20.956;2022-12-29T15:58:29;9.06;67.38
65598;SHT31;52267;51.984;20.956;2022-12-29T16:00:58;8.99;67.59
65598;SHT31;52267;51.984;20.956;2022-12-29T16:03:29;8.96;67.87
65598;SHT31;52267;51.984;20.956;2022-12-29T16:06:53;8.93;68.10
65598;SHT31;52267;51.984;20.956;2022-12-29T16:09:01;8.88;68.35
65598;SHT31;52267;51.984;20.956;2022-12-29T16:11:38;8.85;68.46
65598;SHT31;52267;51.984;20.956;2022-12-29T16:14:18;8.81;68.52
65598;SHT31;52267;51.984;20.956;2022-12-29T16:16:47;8.77;68.57
65598;SHT31;52267;51.984;20.956;2022-12-29T16:19:29;8.73;68.73
65598;SHT31;52267;51.984;20.956;2022-12-29T16:22:09;8.68;68.96
65598;SHT31;52267;51.984;20.956;2022-12-29T16:24:39;8.66;69.14
65598;SHT31;52267;51.984;20.956;2022-12-29T16:29:58;8.61;69.21
65598;SHT31;52267;51.984;20.956;2022-12-29T16:32:33;8.57;69.42
65598;SHT31;52267;51.984;20.956;2022-12-29T16:35:12;8.56;69.52
65598;SHT31;52267;51.984;20.956;2022-12-29T16:38:12;8.52;69.62
65598;SHT31;52267;51.984;20.956;2022-12-29T16:43:28;8.53;69.82
65598;SHT31;52267;51.984;20.956;2022-12-29T16:48:53;8.56;69.74
65598;SHT31;52267;51.984;20.956;2022-12-29T16:51:28;8.57;69.82
65598;SHT31;52267;51.984;20.956;2022-12-29T16:53:59;8.56;69.89
65598;SHT31;52267;51.984;20.956;2022-12-29T16:56:31;8.56;69.90
65598;SHT31;52267;51.984;20.956;2022-12-29T16:59:06;8.56;69.66
65598;SHT31;52267;51.984;20.956;2022-12-29T17:01:48;8.55;69.78
65598;SHT31;52267;51.984;20.956;2022-12-29T17:04:15;8.51;69.95
65598;SHT31;52267;51.984;20.956;2022-12-29T17:06:43;8.49;69.88
65598;SHT31;52267;51.984;20.956;2022-12-29T17:09:17;8.47;70.07
65598;SHT31;52267;51.984;20.956;2022-12-29T17:11:56;8.44;70.20
65598;SHT31;52267;51.984;20.956;2022-12-29T17:17:32;8.37;70.12
65598;SHT31;52267;51.984;20.956;2022-12-29T17:20:14;8.35;70.18
65598;SHT31;52267;51.984;20.956;2022-12-29T17:22:47;8.33;70.23
65598;SHT31;52267;51.984;20.956;2022-12-29T17:25:17;8.30;70.31
65598;SHT31;52267;51.984;20.956;2022-12-29T17:30:27;8.26;70.40
65598;SHT31;52267;51.984;20.956;2022-12-29T17:33:05;8.25;70.58
65598;SHT31;52267;51.984;20.956;2022-12-29T17:35:37;8.22;70.58
65598;SHT31;52267;51.984;20.956;2022-12-29T17:38:26;8.19;70.74
65598;SHT31;52267;51.984;20.956;2022-12-29T17:40:56;8.19;70.79
65598;SHT31;52267;51.984;20.956;2022-12-29T17:43:23;8.16;70.88
65598;SHT31;52267;51.984;20.956;2022-12-29T17:45:54;8.14;70.88
65598;SHT31;52267;51.984;20.956;2022-12-29T17:48:23;8.13;70.95
65598;SHT31;52267;51.984;20.956;2022-12-29T17:50:51;8.12;70.89
65598;SHT31;52267;51.984;20.956;2022-12-29T17:53:23;8.12;71.00
65598;SHT31;52267;51.984;20.956;2022-12-29T17:55:54;8.13;71.06
65598;SHT31;52267;51.984;20.956;2022-12-29T17:58:23;8.13;71.03
65598;SHT31;52267;51.984;20.956;2022-12-29T18:00:54;8.13;71.00
65598;SHT31;52267;51.984;20.956;2022-12-29T18:03:29;8.14;71.03
65598;SHT31;52267;51.984;20.956;2022-12-29T18:05:59;8.13;71.08
65598;SHT31;52267;51.984;20.956;2022-12-29T18:08:27;8.14;71.07
65598;SHT31;52267;51.984;20.956;2022-12-29T18:10:55;8.14;71.17
65598;SHT31;52267;51.984;20.956;2022-12-29T18:13:27;8.14;71.30
65598;SHT31;52267;51.984;20.956;2022-12-29T18:15:56;8.14;71.24
65598;SHT31;52267;51.984;20.956;2022-12-29T18:18:25;8.14;71.22
65598;SHT31;52267;51.984;20.956;2022-12-29T18:20:54;8.15;71.34
65598;SHT31;52267;51.984;20.956;2022-12-29T18:23:26;8.13;71.38
65598;SHT31;52267;51.984;20.956;2022-12-29T18:26:04;8.12;71.44
65598;SHT31;52267;51.984;20.956;2022-12-29T18:28:37;8.13;71.51
65598;SHT31;52267;51.984;20.956;2022-12-29T18:31:12;8.11;71.52
65598;SHT31;52267;51.984;20.956;2022-12-29T18:34:06;8.12;71.61
65598;SHT31;52267;51.984;20.956;2022-12-29T18:36:40;8.12;71.45
65598;SHT31;52267;51.984;20.956;2022-12-29T18:39:07;8.13;71.56
65598;SHT31;52267;51.984;20.956;2022-12-29T18:41:34;8.13;71.53
65598;SHT31;52267;51.984;20.956;2022-12-29T18:44:01;8.14;71.60
65598;SHT31;52267;51.984;20.956;2022-12-29T18:46:28;8.15;71.66
65598;SHT31;52267;51.984;20.956;2022-12-29T18:48:56;8.15;71.64
65598;SHT31;52267;51.984;20.956;2022-12-29T18:51:23;8.15;71.63
65598;SHT31;52267;51.984;20.956;2022-12-29T18:53:51;8.14;71.67
65598;SHT31;52267;51.984;20.956;2022-12-29T18:56:19;8.13;71.85